createdAt,value
2019-03-01T00:01:00.446Z,6.36
2019-03-01T00:03:01.908Z,6.63
2019-03-01T00:05:17.692Z,6.79
2019-03-01T00:08:13.024Z,6.67
2019-03-01T00:10:40.826Z,6.57
2019-03-01T00:13:22.699Z,6.59
2019-03-01T00:15:38.627Z,6.65
2019-03-01T00:18:20.439Z,6.68
2019-03-01T00:20:48.705Z,6.65
2019-03-01T00:22:55.779Z,6.63
2019-03-01T00:25:33.042Z,6.59
2019-03-01T00:27:49.342Z,6.52
2019-03-01T00:30:16.189Z,6.59
2019-03-01T00:32:41.070Z,6.65
2019-03-01T00:35:12.021Z,6.68
2019-03-01T00:37:53.471Z,6.60
2019-03-01T00:40:15.432Z,6.68
2019-03-01T00:42:52.765Z,6.72
2019-03-01T00:44:54.121Z,6.78
2019-03-01T00:46:55.485Z,6.78
2019-03-01T00:48:56.883Z,6.78
2019-03-01T00:50:58.274Z,6.78
2019-03-01T00:52:59.638Z,6.77
2019-03-01T00:55:01.064Z,6.80
2019-03-01T00:57:03.695Z,6.78
2019-03-01T00:59:05.093Z,6.88
2019-03-01T01:01:06.457Z,6.82
2019-03-01T01:03:07.937Z,6.83
2019-03-01T01:05:09.455Z,6.81
2019-03-01T01:07:10.820Z,6.69
2019-03-01T01:09:12.193Z,6.84
2019-03-01T01:11:13.582Z,6.91
2019-03-01T01:13:14.986Z,6.88
2019-03-01T01:15:16.438Z,7.02
2019-03-01T01:17:17.870Z,7.04
2019-03-01T01:19:19.264Z,6.90
2019-03-01T01:21:20.654Z,6.86
2019-03-01T01:23:23.048Z,7.06
2019-03-01T01:25:24.410Z,7.11
2019-03-01T01:27:25.997Z,6.82
2019-03-01T01:29:27.404Z,6.86
2019-03-01T01:31:29.072Z,7.14
2019-03-01T01:33:30.459Z,7.13
2019-03-01T01:35:31.825Z,7.00
2019-03-01T01:37:33.183Z,7.01
2019-03-01T01:39:34.916Z,6.95
2019-03-01T01:41:36.298Z,6.95
2019-03-01T01:43:37.672Z,6.94
2019-03-01T01:45:39.072Z,6.98
2019-03-01T01:47:40.415Z,7.07
2019-03-01T01:49:41.759Z,7.00
2019-03-01T01:51:43.180Z,6.98
2019-03-01T01:53:44.525Z,6.96
2019-03-01T01:55:45.873Z,6.92
2019-03-01T01:57:47.277Z,6.92
2019-03-01T01:59:48.644Z,6.97
2019-03-01T02:01:50.108Z,6.84
2019-03-01T02:03:51.506Z,6.78
2019-03-01T02:05:52.882Z,6.93
2019-03-01T02:07:54.263Z,7.12
2019-03-01T02:09:55.758Z,6.92
2019-03-01T02:11:57.094Z,6.84
2019-03-01T02:13:58.533Z,6.83
2019-03-01T02:15:59.896Z,6.88
2019-03-01T02:18:01.272Z,7.09
2019-03-01T02:20:07.246Z,7.19
2019-03-01T02:22:08.628Z,7.05
2019-03-01T02:24:09.969Z,7.08
2019-03-01T02:26:11.348Z,7.10
2019-03-01T02:28:12.706Z,6.98
2019-03-01T02:30:28.394Z,7.04
2019-03-01T02:32:40.850Z,7.02
2019-03-01T02:34:42.202Z,7.00
2019-03-01T02:36:43.681Z,6.98
2019-03-01T02:38:45.059Z,6.84
2019-03-01T02:40:46.405Z,6.83
2019-03-01T02:42:47.795Z,6.76
2019-03-01T02:44:49.199Z,6.77
2019-03-01T02:46:50.574Z,6.75
2019-03-01T02:48:51.941Z,6.78
2019-03-01T02:50:53.353Z,6.79
2019-03-01T02:52:54.726Z,6.87
2019-03-01T02:54:56.105Z,6.91
2019-03-01T02:56:57.487Z,6.86
2019-03-01T02:58:58.844Z,6.84
2019-03-01T03:01:00.239Z,6.75
2019-03-01T03:03:01.617Z,6.77
2019-03-01T03:05:06.531Z,6.67
2019-03-01T03:07:12.664Z,6.56
2019-03-01T03:09:14.079Z,6.57
2019-03-01T03:11:15.489Z,6.53
2019-03-01T03:13:16.981Z,6.53
2019-03-01T03:15:20.310Z,6.57
2019-03-01T03:17:21.744Z,6.58
2019-03-01T03:19:23.118Z,6.53
2019-03-01T03:21:24.518Z,6.50
2019-03-01T03:23:25.886Z,6.62
2019-03-01T03:25:27.362Z,6.58
2019-03-01T03:27:28.838Z,6.50
2019-03-01T03:29:30.246Z,6.52
2019-03-01T03:31:31.654Z,6.59
2019-03-01T03:33:33.045Z,6.57
2019-03-01T03:35:34.398Z,6.42
2019-03-01T03:37:35.759Z,6.35
2019-03-01T03:39:37.147Z,6.47
2019-03-01T03:41:38.603Z,6.52
2019-03-01T03:43:40.019Z,6.49
2019-03-01T03:45:41.369Z,6.59
2019-03-01T03:47:42.746Z,6.58
2019-03-01T03:49:44.126Z,6.65
2019-03-01T03:51:45.486Z,6.86
2019-03-01T03:53:46.855Z,6.69
2019-03-01T03:55:48.236Z,6.62
2019-03-01T03:57:49.593Z,6.63
2019-03-01T03:59:51.176Z,6.76
2019-03-01T04:01:52.724Z,6.59
2019-03-01T04:03:54.079Z,6.54
2019-03-01T04:05:55.563Z,6.54
2019-03-01T04:07:57.010Z,6.70
2019-03-01T04:09:58.392Z,6.52
2019-03-01T04:11:59.788Z,6.63
2019-03-01T04:14:01.171Z,6.56
2019-03-01T04:16:02.623Z,6.56
2019-03-01T04:18:04.215Z,6.67
2019-03-01T04:20:17.568Z,6.64
2019-03-01T04:22:18.920Z,6.68
2019-03-01T04:24:20.327Z,6.62
2019-03-01T04:26:21.675Z,6.73
2019-03-01T04:28:23.031Z,6.63
2019-03-01T04:30:24.427Z,6.67
2019-03-01T04:32:25.895Z,6.56
2019-03-01T04:34:27.239Z,6.59
2019-03-01T04:36:28.642Z,6.59
2019-03-01T04:38:29.995Z,6.61
2019-03-01T04:40:31.346Z,6.58
2019-03-01T04:42:32.746Z,6.53
2019-03-01T04:44:34.127Z,6.56
2019-03-01T04:46:35.487Z,6.53
2019-03-01T04:48:36.853Z,6.58
2019-03-01T04:50:38.239Z,6.61
2019-03-01T04:52:40.188Z,6.69
2019-03-01T04:54:41.580Z,6.80
2019-03-01T04:56:42.978Z,6.68
2019-03-01T04:58:44.346Z,6.78
2019-03-01T05:00:45.697Z,6.82
2019-03-01T05:02:47.078Z,6.71
2019-03-01T05:04:48.422Z,6.75
2019-03-01T05:06:49.808Z,6.67
2019-03-01T05:08:51.195Z,6.68
2019-03-01T05:10:52.814Z,6.68
2019-03-01T05:12:54.158Z,6.75
2019-03-01T05:14:55.514Z,6.66
2019-03-01T05:16:56.953Z,6.77
2019-03-01T05:18:58.407Z,6.90
2019-03-01T05:20:59.799Z,6.87
2019-03-01T05:23:01.187Z,6.72
2019-03-01T05:25:05.553Z,6.71
2019-03-01T05:27:06.947Z,6.77
2019-03-01T05:29:08.635Z,6.77
2019-03-01T05:31:09.993Z,6.71
2019-03-01T05:33:11.364Z,6.71
2019-03-01T05:35:13.535Z,6.73
2019-03-01T05:37:14.911Z,6.90
2019-03-01T05:39:16.262Z,6.79
2019-03-01T05:41:17.642Z,6.61
2019-03-01T05:43:18.988Z,6.68
2019-03-01T05:45:28.823Z,6.70
2019-03-01T05:47:30.181Z,6.80
2019-03-01T05:49:31.542Z,7.05
2019-03-01T05:51:32.922Z,6.76
2019-03-01T05:53:34.317Z,6.86
2019-03-01T05:55:36.083Z,6.95
2019-03-01T05:58:16.844Z,7.03
2019-03-01T06:00:18.667Z,7.06
2019-03-01T06:02:49.917Z,6.89
2019-03-01T06:04:56.092Z,6.83
2019-03-01T06:07:15.198Z,6.91
2019-03-01T06:09:28.115Z,7.01
2019-03-01T06:11:41.379Z,7.10
2019-03-01T06:14:06.392Z,7.11
2019-03-01T06:16:19.577Z,7.13
2019-03-01T06:18:59.128Z,7.06
2019-03-01T06:21:26.360Z,7.01
2019-03-01T06:23:53.164Z,6.98
2019-03-01T06:26:06.219Z,6.99
2019-03-01T06:28:40.727Z,7.09
2019-03-01T06:31:19.963Z,6.99
2019-03-01T06:33:44.586Z,7.07
2019-03-01T06:36:14.271Z,6.90
2019-03-01T06:38:32.007Z,6.93
2019-03-01T06:41:15.878Z,7.06
2019-03-01T06:43:50.123Z,7.13
2019-03-01T06:46:26.971Z,7.16
2019-03-01T06:48:32.882Z,7.13
2019-03-01T06:50:36.161Z,7.10
2019-03-01T06:52:37.573Z,7.12
2019-03-01T06:54:38.973Z,7.08
2019-03-01T06:56:40.354Z,7.21
2019-03-01T06:58:41.949Z,7.21
2019-03-01T07:00:50.278Z,7.25
2019-03-01T07:02:48.826Z,7.31
2019-03-01T07:04:50.244Z,7.37
2019-03-01T07:06:51.618Z,7.38
2019-03-01T07:08:53.029Z,7.39
2019-03-01T07:10:54.441Z,7.33
2019-03-01T07:12:55.852Z,7.31
2019-03-01T07:14:57.242Z,7.39
2019-03-01T07:16:58.648Z,7.44
2019-03-01T07:19:00.035Z,7.38
2019-03-01T07:21:01.436Z,7.51
2019-03-01T07:23:02.827Z,7.48
2019-03-01T07:25:06.039Z,7.50
2019-03-01T07:27:07.412Z,7.51
2019-03-01T07:29:08.783Z,7.48
2019-03-01T07:31:10.220Z,7.43
2019-03-01T07:33:11.572Z,7.32
2019-03-01T07:35:13.020Z,7.40
2019-03-01T07:37:14.471Z,7.48
2019-03-01T07:39:15.833Z,7.49
2019-03-01T07:41:17.211Z,7.59
2019-03-01T07:43:18.626Z,7.60
2019-03-01T07:45:20.009Z,7.60
2019-03-01T07:47:21.420Z,7.50
2019-03-01T07:49:23.068Z,7.57
2019-03-01T07:51:26.971Z,7.58
2019-03-01T07:53:27.729Z,7.67
2019-03-01T07:55:29.468Z,7.75
2019-03-01T07:57:31.637Z,7.71
2019-03-01T07:59:37.938Z,7.75
2019-03-01T08:01:36.580Z,7.85
2019-03-01T08:03:38.000Z,7.90
2019-03-01T08:05:40.445Z,7.86
2019-03-01T08:07:41.997Z,7.83
2019-03-01T08:09:44.928Z,7.92
2019-03-01T08:11:46.742Z,7.83
2019-03-01T08:13:49.437Z,7.95
2019-03-01T08:15:51.390Z,7.96
2019-03-01T08:17:52.800Z,7.99
2019-03-01T08:19:54.880Z,8.20
2019-03-01T08:21:57.434Z,8.11
2019-03-01T08:23:58.851Z,8.20
2019-03-01T08:26:00.234Z,8.12
2019-03-01T08:28:01.605Z,8.15
2019-03-01T08:30:14.700Z,8.03
2019-03-01T08:32:16.109Z,8.07
2019-03-01T08:34:18.603Z,7.95
2019-03-01T08:36:20.208Z,7.91
2019-03-01T08:38:21.574Z,8.17
2019-03-01T08:40:23.009Z,8.00
2019-03-01T08:42:24.374Z,7.97
2019-03-01T08:44:25.750Z,8.14
2019-03-01T08:46:27.170Z,8.00
2019-03-01T08:48:30.597Z,8.16
2019-03-01T08:50:31.920Z,8.05
2019-03-01T08:52:33.333Z,8.36
2019-03-01T08:54:34.700Z,8.33
2019-03-01T08:56:36.099Z,8.36
2019-03-01T08:58:40.978Z,8.31
2019-03-01T09:00:45.198Z,8.20
2019-03-01T09:02:46.876Z,8.02
2019-03-01T09:04:51.227Z,7.99
2019-03-01T09:06:51.886Z,8.04
2019-03-01T09:08:53.293Z,8.22
2019-03-01T09:10:54.676Z,8.16
2019-03-01T09:12:56.095Z,8.27
2019-03-01T09:14:57.595Z,8.38
2019-03-01T09:16:59.027Z,8.18
2019-03-01T09:19:00.900Z,8.39
2019-03-01T09:21:05.875Z,8.19
2019-03-01T09:23:19.651Z,8.15
2019-03-01T09:25:12.352Z,8.28
2019-03-01T09:27:13.723Z,8.46
2019-03-01T09:29:18.583Z,8.24
2019-03-01T09:31:18.562Z,8.12
2019-03-01T09:33:21.258Z,8.29
2019-03-01T09:35:29.942Z,8.37
2019-03-01T09:37:32.480Z,8.21
2019-03-01T09:39:35.679Z,8.23
2019-03-01T09:41:40.588Z,8.16
2019-03-01T09:43:40.357Z,8.35
2019-03-01T09:45:42.061Z,8.34
2019-03-01T09:47:43.442Z,8.56
2019-03-01T09:49:44.939Z,8.37
2019-03-01T09:51:49.179Z,8.59
2019-03-01T09:53:49.774Z,8.49
2019-03-01T09:55:51.197Z,8.44
2019-03-01T09:57:52.665Z,8.53
2019-03-01T09:59:54.472Z,8.51
2019-03-01T10:01:55.872Z,8.49
2019-03-01T10:03:57.366Z,8.79
2019-03-01T10:05:58.786Z,8.51
2019-03-01T10:08:00.170Z,8.67
2019-03-01T10:10:02.520Z,8.68
2019-03-01T10:12:03.902Z,8.65
2019-03-01T10:14:05.338Z,8.46
2019-03-01T10:16:06.722Z,8.66
2019-03-01T10:18:08.126Z,8.46
2019-03-01T10:20:12.557Z,8.28
2019-03-01T10:22:13.933Z,8.40
2019-03-01T10:24:15.325Z,8.49
2019-03-01T10:26:16.781Z,8.58
2019-03-01T10:28:18.235Z,8.61
2019-03-01T10:30:25.906Z,8.43
2019-03-01T10:32:27.325Z,8.41
2019-03-01T10:34:28.743Z,8.37
2019-03-01T10:36:30.147Z,8.45
2019-03-01T10:38:31.583Z,8.59
2019-03-01T10:40:33.102Z,8.38
2019-03-01T10:42:34.464Z,8.27
2019-03-01T10:44:35.873Z,8.39
2019-03-01T10:46:37.279Z,8.41
2019-03-01T10:48:38.729Z,8.25
2019-03-01T10:50:40.139Z,8.41
2019-03-01T10:52:41.546Z,8.40
2019-03-01T10:54:42.917Z,8.44
2019-03-01T10:56:44.313Z,8.47
2019-03-01T10:58:45.725Z,8.46
2019-03-01T11:00:47.113Z,8.26
2019-03-01T11:02:48.994Z,8.37
2019-03-01T11:04:50.409Z,8.43
2019-03-01T11:06:52.320Z,8.58
2019-03-01T11:08:53.724Z,8.40
2019-03-01T11:10:55.111Z,8.29
2019-03-01T11:12:56.635Z,8.43
2019-03-01T11:14:58.005Z,8.39
2019-03-01T11:16:59.381Z,8.52
2019-03-01T11:19:00.780Z,8.45
2019-03-01T11:21:02.306Z,8.41
2019-03-01T11:23:03.791Z,8.32
2019-03-01T11:25:09.958Z,8.48
2019-03-01T11:27:13.047Z,8.41
2019-03-01T11:29:14.723Z,8.40
2019-03-01T11:31:16.182Z,8.32
2019-03-01T11:33:17.560Z,8.33
2019-03-01T11:35:19.039Z,8.38
2019-03-01T11:37:20.467Z,8.48
2019-03-01T11:39:22.573Z,8.47
2019-03-01T11:41:23.935Z,8.40
2019-03-01T11:43:25.870Z,8.42
2019-03-01T11:45:27.565Z,8.40
2019-03-01T11:47:28.961Z,8.39
2019-03-01T11:49:30.397Z,8.33
2019-03-01T11:51:31.772Z,8.30
2019-03-01T11:53:33.157Z,8.18
2019-03-01T11:55:34.534Z,8.22
2019-03-01T11:57:35.929Z,8.28
2019-03-01T11:59:37.536Z,8.26
2019-03-01T12:01:38.895Z,8.13
2019-03-01T12:03:40.267Z,8.23
2019-03-01T12:05:41.746Z,8.26
2019-03-01T12:07:43.114Z,8.36
2019-03-01T12:09:44.491Z,8.30
2019-03-01T12:11:45.899Z,8.30
2019-03-01T12:13:47.261Z,8.27
2019-03-01T12:15:48.656Z,8.33
2019-03-01T12:17:50.866Z,8.25
2019-03-01T12:19:52.300Z,8.34
2019-03-01T12:21:53.668Z,8.38
2019-03-01T12:23:55.046Z,8.45
2019-03-01T12:25:56.450Z,8.47
2019-03-01T12:27:57.843Z,8.24
2019-03-01T12:29:59.221Z,8.30
2019-03-01T12:32:00.652Z,8.31
2019-03-01T12:34:02.011Z,8.34
2019-03-01T12:36:03.523Z,8.26
2019-03-01T12:38:04.888Z,8.34
2019-03-01T12:40:20.441Z,8.22
2019-03-01T12:42:21.828Z,8.14
2019-03-01T12:44:23.215Z,8.24
2019-03-01T12:46:24.620Z,8.38
2019-03-01T12:48:26.076Z,8.36
2019-03-01T12:50:27.473Z,8.29
2019-03-01T12:52:29.094Z,8.22
2019-03-01T12:54:30.462Z,8.41
2019-03-01T12:56:31.835Z,8.49
2019-03-01T12:58:33.223Z,8.35
2019-03-01T13:00:37.415Z,8.35
2019-03-01T13:02:38.778Z,8.41
2019-03-01T13:04:40.185Z,8.34
2019-03-01T13:06:41.596Z,8.39
2019-03-01T13:08:42.957Z,8.31
2019-03-01T13:10:46.115Z,8.35
2019-03-01T13:12:47.636Z,8.33
2019-03-01T13:14:48.996Z,8.29
2019-03-01T13:16:50.429Z,8.19
2019-03-01T13:18:52.412Z,8.25
2019-03-01T13:20:53.851Z,8.27
2019-03-01T13:22:55.252Z,8.41
2019-03-01T13:24:56.630Z,8.30
2019-03-01T13:26:57.988Z,8.21
2019-03-01T13:28:59.422Z,8.32
2019-03-01T13:31:00.794Z,8.24
2019-03-01T13:33:03.417Z,8.20
2019-03-01T13:35:12.614Z,8.23
2019-03-01T13:37:19.272Z,8.21
2019-03-01T13:39:17.481Z,8.13
2019-03-01T13:41:18.900Z,7.99
2019-03-01T13:43:20.283Z,8.03
2019-03-01T13:45:24.408Z,8.01
2019-03-01T13:47:25.780Z,7.99
2019-03-01T13:49:30.268Z,8.13
2019-03-01T13:51:30.546Z,7.90
2019-03-01T13:53:33.338Z,7.87
2019-03-01T13:55:35.327Z,7.89
2019-03-01T13:57:36.799Z,7.75
2019-03-01T13:59:40.356Z,7.82
2019-03-01T14:01:41.481Z,7.83
2019-03-01T14:03:42.842Z,7.62
2019-03-01T14:05:44.250Z,7.59
2019-03-01T14:07:46.310Z,7.62
2019-03-01T14:09:47.664Z,7.62
2019-03-01T14:11:49.081Z,7.43
2019-03-01T14:13:51.171Z,7.40
2019-03-01T14:15:53.429Z,7.29
2019-03-01T14:18:00.437Z,7.46
2019-03-01T14:19:58.105Z,7.44
2019-03-01T14:21:59.462Z,7.45
2019-03-01T14:24:00.865Z,7.28
2019-03-01T14:26:02.278Z,7.45
2019-03-01T14:28:05.195Z,7.46
2019-03-01T14:30:13.777Z,7.52
2019-03-01T14:32:20.799Z,7.57
2019-03-01T14:34:18.496Z,7.48
2019-03-01T14:36:19.865Z,7.48
2019-03-01T14:38:30.003Z,7.44
2019-03-01T14:40:30.524Z,7.30
2019-03-01T14:42:31.896Z,7.37
2019-03-01T14:44:33.926Z,7.45
2019-03-01T14:46:36.157Z,7.34
2019-03-01T14:48:37.526Z,7.37
2019-03-01T14:50:38.944Z,7.42
2019-03-01T14:52:40.336Z,7.48
2019-03-01T14:54:41.799Z,7.45
2019-03-01T14:56:46.081Z,7.31
2019-03-01T14:59:02.121Z,7.38
2019-03-01T15:01:09.195Z,7.39
2019-03-01T15:03:31.088Z,7.33
2019-03-01T15:05:34.172Z,7.28
2019-03-01T15:07:36.414Z,7.32
2019-03-01T15:09:38.370Z,7.22
2019-03-01T15:11:41.099Z,7.28
2019-03-01T15:13:44.085Z,7.42
2019-03-01T15:15:45.878Z,7.29
2019-03-01T15:17:47.576Z,7.30
2019-03-01T15:19:49.451Z,7.29
2019-03-01T15:21:51.302Z,7.35
2019-03-01T15:23:56.184Z,7.46
2019-03-01T15:25:58.352Z,7.46
2019-03-01T15:28:00.151Z,7.57
2019-03-01T15:30:10.019Z,7.50
2019-03-01T15:32:12.568Z,7.35
2019-03-01T15:34:14.604Z,7.51
2019-03-01T15:36:19.173Z,7.60
2019-03-01T15:38:23.845Z,7.60
2019-03-01T15:40:27.963Z,7.59
2019-03-01T15:42:28.927Z,7.45
2019-03-01T15:44:30.726Z,7.60
2019-03-01T15:46:32.517Z,7.57
2019-03-01T15:48:38.010Z,7.62
2019-03-01T15:50:38.584Z,7.55
2019-03-01T15:52:40.761Z,7.46
2019-03-01T15:54:42.576Z,7.27
2019-03-01T15:56:44.254Z,7.55
2019-03-01T15:58:46.674Z,7.55
2019-03-01T16:00:50.174Z,7.41
2019-03-01T16:02:53.199Z,7.39
2019-03-01T16:04:55.419Z,7.32
2019-03-01T16:06:57.550Z,7.34
2019-03-01T16:08:59.312Z,7.32
2019-03-01T16:11:01.076Z,7.27
2019-03-01T16:13:03.065Z,7.25
2019-03-01T16:15:15.972Z,7.22
2019-03-01T16:17:17.735Z,7.24
2019-03-01T16:19:19.454Z,7.00
2019-03-01T16:21:21.262Z,7.08
2019-03-01T16:23:23.052Z,7.11
2019-03-01T16:25:25.177Z,7.13
2019-03-01T16:27:26.941Z,7.25
2019-03-01T16:29:28.693Z,7.22
2019-03-01T16:31:32.077Z,7.27
2019-03-01T16:33:34.316Z,7.12
2019-03-01T16:35:36.113Z,7.05
2019-03-01T16:37:38.655Z,7.13
2019-03-01T16:39:40.347Z,6.98
2019-03-01T16:41:42.892Z,6.88
2019-03-01T16:43:45.483Z,6.94
2019-03-01T16:45:47.253Z,7.08
2019-03-01T16:47:49.218Z,7.05
2019-03-01T16:49:51.101Z,7.08
2019-03-01T16:51:53.962Z,6.98
2019-03-01T16:53:56.533Z,7.02
2019-03-01T16:55:59.268Z,7.04
2019-03-01T16:58:06.962Z,6.99
2019-03-01T17:00:14.683Z,6.82
2019-03-01T17:02:17.299Z,6.82
2019-03-01T17:04:18.956Z,6.75
2019-03-01T17:06:20.750Z,6.73
2019-03-01T17:08:22.662Z,6.65
2019-03-01T17:10:26.483Z,6.67
2019-03-01T17:12:28.381Z,6.63
2019-03-01T17:14:30.660Z,6.62
2019-03-01T17:16:32.444Z,6.68
2019-03-01T17:18:34.205Z,6.68
2019-03-01T17:20:38.410Z,6.59
2019-03-01T17:22:40.701Z,6.56
2019-03-01T17:24:42.452Z,6.62
2019-03-01T17:26:44.230Z,6.60
2019-03-01T17:28:46.861Z,6.60
2019-03-01T17:30:50.565Z,6.46
2019-03-01T17:32:52.434Z,6.50
2019-03-01T17:34:54.288Z,6.49
2019-03-01T17:36:56.169Z,6.53
2019-03-01T17:38:57.911Z,6.45
2019-03-01T17:40:59.795Z,6.49
2019-03-01T17:43:01.471Z,6.43
2019-03-01T17:45:20.941Z,6.43
2019-03-01T17:47:21.529Z,6.33
2019-03-01T17:49:23.358Z,6.32
2019-03-01T17:51:25.247Z,6.30
2019-03-01T17:53:27.086Z,6.18
2019-03-01T17:55:28.835Z,6.38
2019-03-01T17:57:32.938Z,6.40
2019-03-01T17:59:35.765Z,6.31
2019-03-01T18:01:39.203Z,6.38
2019-03-01T18:03:41.180Z,6.37
2019-03-01T18:05:43.063Z,6.33
2019-03-01T18:07:45.596Z,6.44
2019-03-01T18:09:47.594Z,6.30
2019-03-01T18:11:50.392Z,6.31
2019-03-01T18:13:56.845Z,6.22
2019-03-01T18:15:59.902Z,6.24
2019-03-01T18:18:03.252Z,6.17
2019-03-01T18:20:11.110Z,6.13
2019-03-01T18:22:13.169Z,6.18
2019-03-01T18:24:16.477Z,6.23
2019-03-01T18:26:18.368Z,6.17
2019-03-01T18:28:20.193Z,6.10
2019-03-01T18:30:29.942Z,6.06
2019-03-01T18:32:31.266Z,6.10
2019-03-01T18:34:35.585Z,5.99
2019-03-01T18:36:35.984Z,6.14
2019-03-01T18:38:37.351Z,6.01
2019-03-01T18:40:38.890Z,6.14
2019-03-01T18:42:40.270Z,6.07
2019-03-01T18:44:41.639Z,5.98
2019-03-01T18:46:43.088Z,5.93
2019-03-01T18:48:44.738Z,6.01
2019-03-01T18:50:46.403Z,6.00
2019-03-01T18:52:49.596Z,5.98
2019-03-01T18:54:51.051Z,5.81
2019-03-01T18:56:52.473Z,5.76
2019-03-01T18:58:53.915Z,5.80
2019-03-01T19:00:55.274Z,5.76
2019-03-01T19:02:57.519Z,5.71
2019-03-01T19:05:00.657Z,5.74
2019-03-01T19:07:03.847Z,5.75
2019-03-01T19:09:06.414Z,5.66
2019-03-01T19:11:07.948Z,5.68
2019-03-01T19:13:09.712Z,5.72
2019-03-01T19:15:16.375Z,5.70
2019-03-01T19:17:17.837Z,5.75
2019-03-01T19:19:19.207Z,5.72
2019-03-01T19:21:20.636Z,5.67
2019-03-01T19:23:22.042Z,5.61
2019-03-01T19:25:25.249Z,5.60
2019-03-01T19:27:27.321Z,5.58
2019-03-01T19:29:28.728Z,5.68
2019-03-01T19:31:30.113Z,5.57
2019-03-01T19:33:34.718Z,5.54
2019-03-01T19:35:40.613Z,5.40
2019-03-01T19:37:42.022Z,5.56
2019-03-01T19:39:43.611Z,5.54
2019-03-01T19:41:45.165Z,5.64
2019-03-01T19:43:53.848Z,5.59
2019-03-01T19:45:50.049Z,5.50
2019-03-01T19:47:51.421Z,5.42
2019-03-01T19:49:52.894Z,5.37
2019-03-01T19:51:54.277Z,5.43
2019-03-01T19:53:57.340Z,5.42
2019-03-01T19:55:59.084Z,5.32
2019-03-01T19:58:00.468Z,5.32
2019-03-01T20:00:08.270Z,5.30
2019-03-01T20:02:09.712Z,5.26
2019-03-01T20:04:11.620Z,5.27
2019-03-01T20:06:12.985Z,5.25
2019-03-01T20:08:14.448Z,5.34
2019-03-01T20:10:16.692Z,5.38
2019-03-01T20:12:18.375Z,5.35
2019-03-01T20:14:20.023Z,5.27
2019-03-01T20:16:22.576Z,5.24
2019-03-01T20:18:24.715Z,5.23
2019-03-01T20:20:29.882Z,5.23
2019-03-01T20:22:32.113Z,5.33
2019-03-01T20:24:33.605Z,5.30
2019-03-01T20:26:35.098Z,5.15
2019-03-01T20:28:36.463Z,5.24
2019-03-01T20:30:37.810Z,5.03
2019-03-01T20:32:39.232Z,5.22
2019-03-01T20:34:40.693Z,5.14
2019-03-01T20:36:42.124Z,5.08
2019-03-01T20:38:43.519Z,5.14
2019-03-01T20:40:44.940Z,5.16
2019-03-01T20:42:46.296Z,5.17
2019-03-01T20:44:50.245Z,5.21
2019-03-01T20:46:51.057Z,5.06
2019-03-01T20:48:52.395Z,5.04
2019-03-01T20:50:53.825Z,5.11
2019-03-01T20:52:55.341Z,5.22
2019-03-01T20:54:57.766Z,5.21
2019-03-01T20:56:59.987Z,5.13
2019-03-01T20:59:01.425Z,5.18
2019-03-01T21:01:03.080Z,5.08
2019-03-01T21:03:04.496Z,4.98
2019-03-01T21:05:11.915Z,4.96
2019-03-01T21:07:15.653Z,4.86
2019-03-01T21:09:16.613Z,5.26
2019-03-01T21:11:18.054Z,5.32
2019-03-01T21:13:19.435Z,5.22
2019-03-01T21:15:21.510Z,5.25
2019-03-01T21:17:23.089Z,5.09
2019-03-01T21:19:24.453Z,5.08
2019-03-01T21:21:28.869Z,5.10
2019-03-01T21:23:29.161Z,5.16
2019-03-01T21:25:30.503Z,5.05
2019-03-01T21:27:31.883Z,5.03
2019-03-01T21:29:33.352Z,5.10
2019-03-01T21:31:35.433Z,5.06
2019-03-01T21:33:37.878Z,4.94
2019-03-01T21:35:39.335Z,4.84
2019-03-01T21:37:40.670Z,4.80
2019-03-01T21:39:42.039Z,4.77
2019-03-01T21:41:44.859Z,4.78
2019-03-01T21:43:46.709Z,4.75
2019-03-01T21:45:48.111Z,4.73
2019-03-01T21:47:49.496Z,4.70
2019-03-01T21:49:50.931Z,4.83
2019-03-01T21:51:55.152Z,5.19
2019-03-01T21:53:55.618Z,5.13
2019-03-01T21:55:57.028Z,4.95
2019-03-01T21:57:58.763Z,4.93
2019-03-01T22:00:00.325Z,4.96
2019-03-01T22:02:01.685Z,4.81
2019-03-01T22:04:03.792Z,4.73
2019-03-01T22:06:05.316Z,4.65
2019-03-01T22:08:09.586Z,4.61
2019-03-01T22:10:14.385Z,4.61
2019-03-01T22:12:15.897Z,4.59
2019-03-01T22:14:17.273Z,4.64
2019-03-01T22:16:18.629Z,4.53
2019-03-01T22:18:20.400Z,4.57
2019-03-01T22:20:23.730Z,4.52
2019-03-01T22:22:25.132Z,4.47
2019-03-01T22:24:26.721Z,4.46
2019-03-01T22:26:28.856Z,4.43
2019-03-01T22:28:32.701Z,4.42
2019-03-01T22:30:33.542Z,4.42
2019-03-01T22:32:34.965Z,4.41
2019-03-01T22:34:36.324Z,4.40
2019-03-01T22:36:37.704Z,4.35
2019-03-01T22:38:41.534Z,4.37
2019-03-01T22:40:42.409Z,4.36
2019-03-01T22:42:45.684Z,4.30
2019-03-01T22:44:47.133Z,4.29
2019-03-01T22:46:48.501Z,4.26
2019-03-01T22:48:56.367Z,4.26
2019-03-01T22:50:53.230Z,4.20
2019-03-01T22:52:54.575Z,4.21
2019-03-01T22:54:57.727Z,4.21
2019-03-01T22:56:59.309Z,4.14
2019-03-01T22:59:00.720Z,4.11
2019-03-01T23:01:07.708Z,4.05
2019-03-01T23:03:09.398Z,4.01
2019-03-01T23:05:10.868Z,3.94
2019-03-01T23:07:12.270Z,3.99
2019-03-01T23:09:14.742Z,4.08
2019-03-01T23:11:16.135Z,4.04
2019-03-01T23:13:20.778Z,4.06
2019-03-01T23:15:20.824Z,4.50
2019-03-01T23:17:22.172Z,4.50
2019-03-01T23:19:23.617Z,4.37
2019-03-01T23:21:24.978Z,4.35
2019-03-01T23:23:26.389Z,4.27
2019-03-01T23:25:27.880Z,4.06
2019-03-01T23:27:31.850Z,3.87
2019-03-01T23:29:32.507Z,3.77
2019-03-01T23:31:35.662Z,3.77
2019-03-01T23:33:37.395Z,3.71
2019-03-01T23:35:38.768Z,3.72
2019-03-01T23:37:40.167Z,3.68
2019-03-01T23:39:41.534Z,3.56
2019-03-01T23:41:43.540Z,3.55
2019-03-01T23:43:46.460Z,3.43
2019-03-01T23:45:49.918Z,3.43
2019-03-01T23:47:51.157Z,3.39
2019-03-01T23:49:55.613Z,3.37
2019-03-01T23:51:55.845Z,3.40
2019-03-01T23:53:57.262Z,3.52
2019-03-01T23:55:58.604Z,3.44
2019-03-01T23:58:06.055Z,3.37
